sensor_id;sensor_type;location;lat;lon;timestamp;temperature;humidity
21622;DHT22;10973;46.706;12.340;2022-12-18T00:00:00;-3.60;99.90
21622;DHT22;10973;46.706;12.340;2022-12-18T00:02:28;-3.70;99.90
21622;DHT22;10973;46.706;12.340;2022-12-18T00:04:55;-3.70;99.90
21622;DHT22;10973;46.706;12.340;2022-12-18T00:07:22;-3.70;99.90
21622;DHT22;10973;46.706;12.340;2022-12-18T00:09:50;-3.80;99.90
21622;DHT22;10973;46.706;12.340;2022-12-18T00:12:17;-3.70;99.90
21622;DHT22;10973;46.706;12.340;2022-12-18T00:14:49;-3.70;99.90
21622;DHT22;10973;46.706;12.340;2022-12-18T00:17:16;-3.80;99.90
21622;DHT22;10973;46.706;12.340;2022-12-18T00:19:43;-3.80;99.90
21622;DHT22;10973;46.706;12.340;2022-12-18T00:22:10;-3.80;99.90
21622;DHT22;10973;46.706;12.340;2022-12-18T00:24:38;-3.70;99.90
21622;DHT22;10973;46.706;12.340;2022-12-18T00:27:05;-3.60;99.90
21622;DHT22;10973;46.706;12.340;2022-12-18T00:29:32;-3.80;99.90
21622;DHT22;10973;46.706;12.340;2022-12-18T00:31:59;-3.90;99.90
21622;DHT22;10973;46.706;12.340;2022-12-18T00:34:27;-4.00;99.90
21622;DHT22;10973;46.706;12.340;2022-12-18T00:36:54;-3.90;99.90
21622;DHT22;10973;46.706;12.340;2022-12-18T00:39:21;-3.90;99.90
21622;DHT22;10973;46.706;12.340;2022-12-18T00:41:49;-3.90;99.90
21622;DHT22;10973;46.706;12.340;2022-12-18T00:44:17;-4.00;99.90
21622;DHT22;10973;46.706;12.340;2022-12-18T00:46:46;-4.00;99.90
21622;DHT22;10973;46.706;12.340;2022-12-18T00:49:16;-4.10;99.90
21622;DHT22;10973;46.706;12.340;2022-12-18T00:51:46;-4.00;99.90
21622;DHT22;10973;46.706;12.340;2022-12-18T00:54:13;-4.10;99.90
21622;DHT22;10973;46.706;12.340;2022-12-18T00:56:40;-4.20;99.90
21622;DHT22;10973;46.706;12.340;2022-12-18T00:59:19;-3.70;99.90
21622;DHT22;10973;46.706;12.340;2022-12-18T01:01:46;-4.20;99.90
21622;DHT22;10973;46.706;12.340;2022-12-18T01:04:14;-4.30;99.90
21622;DHT22;10973;46.706;12.340;2022-12-18T01:06:42;-4.30;99.90
21622;DHT22;10973;46.706;12.340;2022-12-18T01:09:10;-4.30;99.90
21622;DHT22;10973;46.706;12.340;2022-12-18T01:11:37;-4.40;99.90
21622;DHT22;10973;46.706;12.340;2022-12-18T01:14:05;-4.40;99.90
21622;DHT22;10973;46.706;12.340;2022-12-18T01:16:32;-4.40;99.90
21622;DHT22;10973;46.706;12.340;2022-12-18T01:18:59;-4.50;99.90
21622;DHT22;10973;46.706;12.340;2022-12-18T01:21:27;-4.50;99.90
21622;DHT22;10973;46.706;12.340;2022-12-18T01:23:55;-4.50;99.90
21622;DHT22;10973;46.706;12.340;2022-12-18T01:26:24;-4.50;99.90
21622;DHT22;10973;46.706;12.340;2022-12-18T01:28:54;-4.50;99.90
21622;DHT22;10973;46.706;12.340;2022-12-18T01:31:27;-4.60;99.90
21622;DHT22;10973;46.706;12.340;2022-12-18T01:33:57;-4.60;99.90
21622;DHT22;10973;46.706;12.340;2022-12-18T01:36:29;-4.70;99.90
21622;DHT22;10973;46.706;12.340;2022-12-18T01:39:12;-4.80;99.90
21622;DHT22;10973;46.706;12.340;2022-12-18T01:41:41;-4.80;99.90
21622;DHT22;10973;46.706;12.340;2022-12-18T01:47:45;-4.80;99.90
21622;DHT22;10973;46.706;12.340;2022-12-18T01:53:16;-4.90;99.90
21622;DHT22;10973;46.706;12.340;2022-12-18T01:55:51;-5.00;99.90
21622;DHT22;10973;46.706;12.340;2022-12-18T01:58:29;-5.00;99.90
21622;DHT22;10973;46.706;12.340;2022-12-18T02:01:08;-5.00;99.90
21622;DHT22;10973;46.706;12.340;2022-12-18T02:03:36;-5.00;99.90
21622;DHT22;10973;46.706;12.340;2022-12-18T02:06:18;-5.10;99.90
21622;DHT22;10973;46.706;12.340;2022-12-18T02:09:05;-5.00;99.90
21622;DHT22;10973;46.706;12.340;2022-12-18T02:11:59;-5.00;
21622;DHT22;10973;46.706;12.340;2022-12-18T02:14:57;-5.10;99.90
21622;DHT22;10973;46.706;12.340;2022-12-18T02:17:37;-5.00;99.90
21622;DHT22;10973;46.706;12.340;2022-12-18T02:28:49;-5.00;99.90
21622;DHT22;10973;46.706;12.340;2022-12-18T02:31:27;-5.00;99.90
21622;DHT22;10973;46.706;12.340;2022-12-18T02:34:00;-5.00;99.90
21622;DHT22;10973;46.706;12.340;2022-12-18T02:36:32;-5.00;99.90
21622;DHT22;10973;46.706;12.340;2022-12-18T02:39:04;-4.90;99.90
21622;DHT22;10973;46.706;12.340;2022-12-18T02:41:35;-5.00;99.90
21622;DHT22;10973;46.706;12.340;2022-12-18T02:44:11;-4.90;99.90
21622;DHT22;10973;46.706;12.340;2022-12-18T02:46:43;-4.90;99.90
21622;DHT22;10973;46.706;12.340;2022-12-18T02:55:07;-5.10;99.90
21622;DHT22;10973;46.706;12.340;2022-12-18T02:57:51;-5.10;99.90
21622;DHT22;10973;46.706;12.340;2022-12-18T03:00:28;-5.10;99.90
21622;DHT22;10973;46.706;12.340;2022-12-18T03:06:25;-5.10;99.90
21622;DHT22;10973;46.706;12.340;2022-12-18T03:09:02;-5.10;99.90
21622;DHT22;10973;46.706;12.340;2022-12-18T03:11:40;-5.20;99.90
21622;DHT22;10973;46.706;12.340;2022-12-18T03:14:14;-5.10;99.90
21622;DHT22;10973;46.706;12.340;2022-12-18T03:16:44;-5.20;99.90
21622;DHT22;10973;46.706;12.340;2022-12-18T03:19:17;-5.20;99.90
21622;DHT22;10973;46.706;12.340;2022-12-18T03:21:51;-5.20;99.90
21622;DHT22;10973;46.706;12.340;2022-12-18T03:24:21;-5.20;99.90
21622;DHT22;10973;46.706;12.340;2022-12-18T03:26:54;-5.20;99.90
21622;DHT22;10973;46.706;12.340;2022-12-18T03:29:38;-5.20;99.90
21622;DHT22;10973;46.706;12.340;2022-12-18T03:32:20;-5.20;99.90
21622;DHT22;10973;46.706;12.340;2022-12-18T03:34:57;-5.20;99.90
21622;DHT22;10973;46.706;12.340;2022-12-18T03:37:27;-5.20;99.90
21622;DHT22;10973;46.706;12.340;2022-12-18T03:39:58;-5.10;99.90
21622;DHT22;10973;46.706;12.340;2022-12-18T03:45:34;-5.30;99.90
21622;DHT22;10973;46.706;12.340;2022-12-18T03:48:29;-5.30;99.90
21622;DHT22;10973;46.706;12.340;2022-12-18T03:51:06;-5.30;99.90
21622;DHT22;10973;46.706;12.340;2022-12-18T03:54:05;-5.40;99.90
21622;DHT22;10973;46.706;12.340;2022-12-18T03:56:42;-5.40;99.90
21622;DHT22;10973;46.706;12.340;2022-12-18T03:59:15;-5.40;99.90
21622;DHT22;10973;46.706;12.340;2022-12-18T04:01:47;-5.30;99.90
21622;DHT22;10973;46.706;12.340;2022-12-18T04:04:18;-5.40;99.90
21622;DHT22;10973;46.706;12.340;2022-12-18T04:06:54;-5.50;99.90
21622;DHT22;10973;46.706;12.340;2022-12-18T04:09:28;-5.50;99.90
21622;DHT22;10973;46.706;12.340;2022-12-18T04:11:58;-5.50;99.90
21622;DHT22;10973;46.706;12.340;2022-12-18T04:14:25;-5.40;99.90
21622;DHT22;10973;46.706;12.340;2022-12-18T04:16:53;-5.30;99.90
21622;DHT22;10973;46.706;12.340;2022-12-18T04:19:20;-5.20;99.90
21622;DHT22;10973;46.706;12.340;2022-12-18T04:21:47;-5.30;99.90
21622;DHT22;10973;46.706;12.340;2022-12-18T04:24:14;-5.30;99.90
21622;DHT22;10973;46.706;12.340;2022-12-18T04:26:41;-5.30;99.90
21622;DHT22;10973;46.706;12.340;2022-12-18T04:29:08;-5.30;99.90
21622;DHT22;10973;46.706;12.340;2022-12-18T04:31:47;-5.40;99.90
21622;DHT22;10973;46.706;12.340;2022-12-18T04:34:28;-5.40;99.90
21622;DHT22;10973;46.706;12.340;2022-12-18T04:36:56;-5.40;99.90
21622;DHT22;10973;46.706;12.340;2022-12-18T04:39:25;-5.50;99.90
21622;DHT22;10973;46.706;12.340;2022-12-18T04:41:52;-5.50;99.90
21622;DHT22;10973;46.706;12.340;2022-12-18T04:44:24;-5.60;99.90
21622;DHT22;10973;46.706;12.340;2022-12-18T04:47:08;-5.60;99.90
21622;DHT22;10973;46.706;12.340;2022-12-18T04:49:35;-5.50;99.90
21622;DHT22;10973;46.706;12.340;2022-12-18T04:52:02;-5.50;99.90
21622;DHT22;10973;46.706;12.340;2022-12-18T04:54:29;-5.50;99.90
21622;DHT22;10973;46.706;12.340;2022-12-18T04:56:57;-5.60;99.90
21622;DHT22;10973;46.706;12.340;2022-12-18T04:59:24;-5.60;99.90
21622;DHT22;10973;46.706;12.340;2022-12-18T05:01:51;-5.50;99.90
21622;DHT22;10973;46.706;12.340;2022-12-18T05:04:18;-5.70;99.90
21622;DHT22;10973;46.706;12.340;2022-12-18T05:06:46;-5.80;99.90
21622;DHT22;10973;46.706;12.340;2022-12-18T05:09:13;-5.70;99.90
21622;DHT22;10973;46.706;12.340;2022-12-18T05:11:41;-5.80;99.90
21622;DHT22;10973;46.706;12.340;2022-12-18T05:14:08;-5.70;99.90
21622;DHT22;10973;46.706;12.340;2022-12-18T05:16:35;-5.70;99.90
21622;DHT22;10973;46.706;12.340;2022-12-18T05:19:02;-5.70;99.90
21622;DHT22;10973;46.706;12.340;2022-12-18T05:21:29;-5.60;99.90
21622;DHT22;10973;46.706;12.340;2022-12-18T05:23:57;-5.70;99.90
21622;DHT22;10973;46.706;12.340;2022-12-18T05:26:24;-5.70;99.90
21622;DHT22;10973;46.706;12.340;2022-12-18T05:28:51;-5.70;99.90
21622;DHT22;10973;46.706;12.340;2022-12-18T05:31:18;-5.70;99.90
21622;DHT22;10973;46.706;12.340;2022-12-18T05:33:45;-5.70;99.90
21622;DHT22;10973;46.706;12.340;2022-12-18T05:36:13;-5.80;99.90
21622;DHT22;10973;46.706;12.340;2022-12-18T05:38:41;-5.70;99.90
21622;DHT22;10973;46.706;12.340;2022-12-18T05:41:09;-5.60;99.90
21622;DHT22;10973;46.706;12.340;2022-12-18T05:43:38;-5.70;99.90
21622;DHT22;10973;46.706;12.340;2022-12-18T05:46:10;-5.80;99.90
21622;DHT22;10973;46.706;12.340;2022-12-18T05:48:40;-5.80;99.90
21622;DHT22;10973;46.706;12.340;2022-12-18T05:51:10;-5.80;99.90
21622;DHT22;10973;46.706;12.340;2022-12-18T05:53:39;-5.90;99.90
21622;DHT22;10973;46.706;12.340;2022-12-18T05:56:14;-5.90;99.90
21622;DHT22;10973;46.706;12.340;2022-12-18T05:58:43;-5.80;99.90
21622;DHT22;10973;46.706;12.340;2022-12-18T06:01:16;-5.90;99.90
21622;DHT22;10973;46.706;12.340;2022-12-18T06:03:46;-6.00;99.90
21622;DHT22;10973;46.706;12.340;2022-12-18T06:06:24;-6.10;99.90
21622;DHT22;10973;46.706;12.340;2022-12-18T06:08:54;-6.20;99.90
21622;DHT22;10973;46.706;12.340;2022-12-18T06:11:24;-6.20;99.90
21622;DHT22;10973;46.706;12.340;2022-12-18T06:13:54;-6.20;99.90
21622;DHT22;10973;46.706;12.340;2022-12-18T06:16:28;-6.30;99.90
21622;DHT22;10973;46.706;12.340;2022-12-18T06:18:57;-6.40;99.90
21622;DHT22;10973;46.706;12.340;2022-12-18T06:21:27;-6.30;99.90
21622;DHT22;10973;46.706;12.340;2022-12-18T06:23:55;-6.30;99.90
21622;DHT22;10973;46.706;12.340;2022-12-18T06:26:24;-6.30;99.90
21622;DHT22;10973;46.706;12.340;2022-12-18T06:28:54;-6.30;99.90
21622;DHT22;10973;46.706;12.340;2022-12-18T06:31:21;-6.20;99.90
21622;DHT22;10973;46.706;12.340;2022-12-18T06:33:49;-6.30;99.90
21622;DHT22;10973;46.706;12.340;2022-12-18T06:36:16;-6.30;99.90
21622;DHT22;10973;46.706;12.340;2022-12-18T06:38:44;-6.30;99.90
21622;DHT22;10973;46.706;12.340;2022-12-18T06:41:17;-6.30;99.90
21622;DHT22;10973;46.706;12.340;2022-12-18T06:43:46;-6.40;99.90
21622;DHT22;10973;46.706;12.340;2022-12-18T06:46:14;-6.40;99.90
21622;DHT22;10973;46.706;12.340;2022-12-18T06:48:42;-6.40;99.90
21622;DHT22;10973;46.706;12.340;2022-12-18T06:51:09;-6.30;99.90
21622;DHT22;10973;46.706;12.340;2022-12-18T06:53:37;-6.30;99.90
21622;DHT22;10973;46.706;12.340;2022-12-18T06:56:06;-6.20;99.90
21622;DHT22;10973;46.706;12.340;2022-12-18T06:58:37;-6.20;99.90
21622;DHT22;10973;46.706;12.340;2022-12-18T07:01:07;-6.30;99.90
21622;DHT22;10973;46.706;12.340;2022-12-18T07:03:38;-6.20;99.90
21622;DHT22;10973;46.706;12.340;2022-12-18T07:06:11;-6.40;99.90
21622;DHT22;10973;46.706;12.340;2022-12-18T07:08:44;-6.40;99.90
21622;DHT22;10973;46.706;12.340;2022-12-18T07:11:13;-6.40;99.90
21622;DHT22;10973;46.706;12.340;2022-12-18T07:13:41;-6.40;99.90
21622;DHT22;10973;46.706;12.340;2022-12-18T07:16:11;-6.60;99.90
21622;DHT22;10973;46.706;12.340;2022-12-18T07:18:48;-6.50;99.90
21622;DHT22;10973;46.706;12.340;2022-12-18T07:21:18;-6.40;99.90
21622;DHT22;10973;46.706;12.340;2022-12-18T07:23:47;-6.40;99.90
21622;DHT22;10973;46.706;12.340;2022-12-18T07:26:17;-6.40;99.90
21622;DHT22;10973;46.706;12.340;2022-12-18T07:28:47;-6.40;99.90
21622;DHT22;10973;46.706;12.340;2022-12-18T07:31:18;-6.40;99.90
21622;DHT22;10973;46.706;12.340;2022-12-18T07:33:48;-6.30;99.90
21622;DHT22;10973;46.706;12.340;2022-12-18T07:36:17;-6.30;99.90
21622;DHT22;10973;46.706;12.340;2022-12-18T07:38:47;-6.30;99.90
21622;DHT22;10973;46.706;12.340;2022-12-18T07:41:16;-6.30;99.90
21622;DHT22;10973;46.706;12.340;2022-12-18T07:43:43;-6.20;99.90
21622;DHT22;10973;46.706;12.340;2022-12-18T07:46:12;-6.30;99.90
21622;DHT22;10973;46.706;12.340;2022-12-18T07:48:41;-6.30;99.90
21622;DHT22;10973;46.706;12.340;2022-12-18T07:51:15;-6.40;99.90
21622;DHT22;10973;46.706;12.340;2022-12-18T07:53:44;-6.20;99.90
21622;DHT22;10973;46.706;12.340;2022-12-18T07:56:12;-6.20;99.90
21622;DHT22;10973;46.706;12.340;2022-12-18T07:58:58;-6.30;99.90
21622;DHT22;10973;46.706;12.340;2022-12-18T08:01:26;-6.20;99.90
21622;DHT22;10973;46.706;12.340;2022-12-18T08:03:54;-6.20;99.90
21622;DHT22;10973;46.706;12.340;2022-12-18T08:06:21;-6.20;99.90
21622;DHT22;10973;46.706;12.340;2022-12-18T08:08:54;-6.20;99.90
21622;DHT22;10973;46.706;12.340;2022-12-18T08:11:24;-6.10;99.90
21622;DHT22;10973;46.706;12.340;2022-12-18T08:13:53;-6.00;99.90
21622;DHT22;10973;46.706;12.340;2022-12-18T08:16:21;-6.00;99.90
21622;DHT22;10973;46.706;12.340;2022-12-18T08:18:49;-5.90;99.90
21622;DHT22;10973;46.706;12.340;2022-12-18T08:21:24;-5.80;99.90
21622;DHT22;10973;46.706;12.340;2022-12-18T08:23:58;-5.80;99.90
21622;DHT22;10973;46.706;12.340;2022-12-18T08:26:29;-5.90;99.90
21622;DHT22;10973;46.706;12.340;2022-12-18T08:28:59;-5.80;99.90
21622;DHT22;10973;46.706;12.340;2022-12-18T08:31:28;-5.70;99.90
21622;DHT22;10973;46.706;12.340;2022-12-18T08:33:57;-5.60;99.90
21622;DHT22;10973;46.706;12.340;2022-12-18T08:36:24;-5.50;99.90
21622;DHT22;10973;46.706;12.340;2022-12-18T08:38:52;-5.40;99.90
21622;DHT22;10973;46.706;12.340;2022-12-18T08:41:20;-5.30;99.90
21622;DHT22;10973;46.706;12.340;2022-12-18T08:43:48;-5.30;99.90
21622;DHT22;10973;46.706;12.340;2022-12-18T08:46:16;-5.30;99.90
21622;DHT22;10973;46.706;12.340;2022-12-18T08:48:44;-5.30;99.90
21622;DHT22;10973;46.706;12.340;2022-12-18T08:51:12;-5.20;99.90
21622;DHT22;10973;46.706;12.340;2022-12-18T08:53:40;-5.20;99.90
21622;DHT22;10973;46.706;12.340;2022-12-18T08:56:08;-5.20;99.90
21622;DHT22;10973;46.706;12.340;2022-12-18T08:58:35;-5.20;99.90
21622;DHT22;10973;46.706;12.340;2022-12-18T09:01:04;-5.20;99.90
21622;DHT22;10973;46.706;12.340;2022-12-18T09:03:36;-5.20;99.90
21622;DHT22;10973;46.706;12.340;2022-12-18T09:06:05;-5.30;99.90
21622;DHT22;10973;46.706;12.340;2022-12-18T09:08:39;-5.20;99.90
21622;DHT22;10973;46.706;12.340;2022-12-18T09:11:14;-5.10;99.90
21622;DHT22;10973;46.706;12.340;2022-12-18T09:13:46;-5.10;99.90
21622;DHT22;10973;46.706;12.340;2022-12-18T09:16:15;-5.00;99.90
21622;DHT22;10973;46.706;12.340;2022-12-18T09:18:43;-5.00;99.90
21622;DHT22;10973;46.706;12.340;2022-12-18T09:21:13;-4.90;99.90
21622;DHT22;10973;46.706;12.340;2022-12-18T09:23:42;-4.90;99.90
21622;DHT22;10973;46.706;12.340;2022-12-18T09:26:10;-4.90;99.90
21622;DHT22;10973;46.706;12.340;2022-12-18T09:28:37;-4.90;99.90
21622;DHT22;10973;46.706;12.340;2022-12-18T09:31:07;-4.80;99.90
21622;DHT22;10973;46.706;12.340;2022-12-18T09:33:35;-4.70;99.90
21622;DHT22;10973;46.706;12.340;2022-12-18T09:36:04;-4.80;99.90
21622;DHT22;10973;46.706;12.340;2022-12-18T09:38:34;-4.80;99.90
21622;DHT22;10973;46.706;12.340;2022-12-18T09:47:22;-4.80;99.90
21622;DHT22;10973;46.706;12.340;2022-12-18T09:49:56;-4.80;99.90
21622;DHT22;10973;46.706;12.340;2022-12-18T09:52:34;-4.80;99.90
21622;DHT22;10973;46.706;12.340;2022-12-18T09:58:30;-4.50;99.90
21622;DHT22;10973;46.706;12.340;2022-12-18T10:01:19;-4.50;99.90
21622;DHT22;10973;46.706;12.340;2022-12-18T10:03:49;-4.50;99.90
21622;DHT22;10973;46.706;12.340;2022-12-18T10:12:35;-4.30;99.90
21622;DHT22;10973;46.706;12.340;2022-12-18T10:15:33;-4.20;99.90
21622;DHT22;10973;46.706;12.340;2022-12-18T10:21:59;-4.10;99.90
21622;DHT22;10973;46.706;12.340;2022-12-18T10:24:53;-4.10;99.90
21622;DHT22;10973;46.706;12.340;2022-12-18T10:27:29;-4.10;99.90
21622;DHT22;10973;46.706;12.340;2022-12-18T10:29:59;-4.10;99.90
21622;DHT22;10973;46.706;12.340;2022-12-18T10:32:30;-4.20;99.90
21622;DHT22;10973;46.706;12.340;2022-12-18T10:34:58;-4.30;99.90
21622;DHT22;10973;46.706;12.340;2022-12-18T10:37:28;-4.30;99.90
21622;DHT22;10973;46.706;12.340;2022-12-18T10:40:15;-4.30;99.90
21622;DHT22;10973;46.706;12.340;2022-12-18T10:43:04;-4.20;99.90
21622;DHT22;10973;46.706;12.340;2022-12-18T10:45:40;-4.20;99.90
21622;DHT22;10973;46.706;12.340;2022-12-18T10:48:21;-4.40;99.90
21622;DHT22;10973;46.706;12.340;2022-12-18T10:50:50;-4.40;99.90
21622;DHT22;10973;46.706;12.340;2022-12-18T10:53:40;-4.40;99.90
21622;DHT22;10973;46.706;12.340;2022-12-18T10:56:09;-4.40;99.90
21622;DHT22;10973;46.706;12.340;2022-12-18T10:58:38;-4.40;99.90
21622;DHT22;10973;46.706;12.340;2022-12-18T11:03:43;-4.40;99.90
21622;DHT22;10973;46.706;12.340;2022-12-18T11:06:21;-4.40;99.90
21622;DHT22;10973;46.706;12.340;2022-12-18T11:09:20;-4.30;99.90
21622;DHT22;10973;46.706;12.340;2022-12-18T11:11:57;-4.30;99.90
21622;DHT22;10973;46.706;12.340;2022-12-18T11:14:34;-4.30;99.90
21622;DHT22;10973;46.706;12.340;2022-12-18T11:17:31;-4.20;99.90
21622;DHT22;10973;46.706;12.340;2022-12-18T11:20:05;-4.00;99.90
21622;DHT22;10973;46.706;12.340;2022-12-18T11:23:00;-3.20;99.90
21622;DHT22;10973;46.706;12.340;2022-12-18T11:25:31;-1.90;99.90
21622;DHT22;10973;46.706;12.340;2022-12-18T11:28:25;-0.90;99.90
21622;DHT22;10973;46.706;12.340;2022-12-18T11:31:26;0.00;99.90
21622;DHT22;10973;46.706;12.340;2022-12-18T11:34:11;0.70;99.90
21622;DHT22;10973;46.706;12.340;2022-12-18T11:36:58;0.80;99.90
21622;DHT22;10973;46.706;12.340;2022-12-18T11:39:44;0.90;99.90
21622;DHT22;10973;46.706;12.340;2022-12-18T11:53:03;-1.90;99.90
21622;DHT22;10973;46.706;12.340;2022-12-18T12:01:39;-3.30;99.90
21622;DHT22;10973;46.706;12.340;2022-12-18T12:28:47;-4.40;99.90
21622;DHT22;10973;46.706;12.340;2022-12-18T12:34:42;-4.50;99.90
21622;DHT22;10973;46.706;12.340;2022-12-18T12:40:27;-4.60;99.90
21622;DHT22;10973;46.706;12.340;2022-12-18T12:43:25;-4.60;99.90
21622;DHT22;10973;46.706;12.340;2022-12-18T12:46:04;-4.70;99.90
21622;DHT22;10973;46.706;12.340;2022-12-18T12:48:46;-4.70;99.90
21622;DHT22;10973;46.706;12.340;2022-12-18T12:54:19;-4.90;99.90
21622;DHT22;10973;46.706;12.340;2022-12-18T12:59:55;-4.90;99.90
21622;DHT22;10973;46.706;12.340;2022-12-18T13:02:59;-4.80;99.90
21622;DHT22;10973;46.706;12.340;2022-12-18T13:06:19;-4.90;99.90
21622;DHT22;10973;46.706;12.340;2022-12-18T13:09:12;-5.00;99.90
21622;DHT22;10973;46.706;12.340;2022-12-18T13:11:46;-5.00;99.90
21622;DHT22;10973;46.706;12.340;2022-12-18T13:14:40;-5.10;99.90
21622;DHT22;10973;46.706;12.340;2022-12-18T13:17:34;-5.10;99.90
21622;DHT22;10973;46.706;12.340;2022-12-18T13:20:10;-5.00;99.90
21622;DHT22;10973;46.706;12.340;2022-12-18T13:22:44;-5.00;99.90
21622;DHT22;10973;46.706;12.340;2022-12-18T13:25:32;-5.10;99.90
21622;DHT22;10973;46.706;12.340;2022-12-18T13:31:02;-5.20;99.90
21622;DHT22;10973;46.706;12.340;2022-12-18T13:33:35;-5.20;99.90
21622;DHT22;10973;46.706;12.340;2022-12-18T13:36:29;-5.20;99.90
21622;DHT22;10973;46.706;12.340;2022-12-18T13:39:33;-5.10;99.90
21622;DHT22;10973;46.706;12.340;2022-12-18T13:44:37;-5.00;99.90
21622;DHT22;10973;46.706;12.340;2022-12-18T13:47:27;-5.10;99.90
21622;DHT22;10973;46.706;12.340;2022-12-18T13:50:00;-5.10;99.90
21622;DHT22;10973;46.706;12.340;2022-12-18T13:52:35;-5.20;99.90
21622;DHT22;10973;46.706;12.340;2022-12-18T13:55:15;-5.20;99.90
21622;DHT22;10973;46.706;12.340;2022-12-18T13:57:46;-5.30;99.90
21622;DHT22;10973;46.706;12.340;2022-12-18T14:02:58;-5.30;99.90
21622;DHT22;10973;46.706;12.340;2022-12-18T14:05:27;-5.30;99.90
21622;DHT22;10973;46.706;12.340;2022-12-18T14:07:55;-5.00;99.90
21622;DHT22;10973;46.706;12.340;2022-12-18T14:10:28;-4.90;99.90
21622;DHT22;10973;46.706;12.340;2022-12-18T14:13:26;-4.80;99.90
21622;DHT22;10973;46.706;12.340;2022-12-18T14:15:57;-4.80;99.90
21622;DHT22;10973;46.706;12.340;2022-12-18T14:18:53;-4.70;99.90
21622;DHT22;10973;46.706;12.340;2022-12-18T14:21:32;-4.70;99.90
21622;DHT22;10973;46.706;12.340;2022-12-18T14:24:14;-4.80;99.90
21622;DHT22;10973;46.706;12.340;2022-12-18T14:26:49;-4.90;99.90
21622;DHT22;10973;46.706;12.340;2022-12-18T14:32:12;-5.00;99.90
21622;DHT22;10973;46.706;12.340;2022-12-18T14:34:50;-5.10;99.90
21622;DHT22;10973;46.706;12.340;2022-12-18T14:37:23;-5.10;99.90
21622;DHT22;10973;46.706;12.340;2022-12-18T14:39:53;-5.30;99.90
21622;DHT22;10973;46.706;12.340;2022-12-18T14:42:28;-5.40;99.90
21622;DHT22;10973;46.706;12.340;2022-12-18T14:45:38;-5.50;99.90
21622;DHT22;10973;46.706;12.340;2022-12-18T14:48:15;-5.60;99.90
21622;DHT22;10973;46.706;12.340;2022-12-18T14:50:58;-5.60;99.90
21622;DHT22;10973;46.706;12.340;2022-12-18T14:53:40;-5.60;99.90
21622;DHT22;10973;46.706;12.340;2022-12-18T14:56:21;-5.70;99.90
21622;DHT22;10973;46.706;12.340;2022-12-18T14:59:03;-5.70;99.90
21622;DHT22;10973;46.706;12.340;2022-12-18T15:01:39;-5.80;99.90
21622;DHT22;10973;46.706;12.340;2022-12-18T15:07:14;-5.80;99.90
21622;DHT22;10973;46.706;12.340;2022-12-18T15:10:14;-5.90;99.90
21622;DHT22;10973;46.706;12.340;2022-12-18T15:26:13;-5.90;99.90
21622;DHT22;10973;46.706;12.340;2022-12-18T15:28:55;-5.90;99.90
21622;DHT22;10973;46.706;12.340;2022-12-18T15:31:33;-5.90;99.90
21622;DHT22;10973;46.706;12.340;2022-12-18T15:34:13;-5.90;99.90
21622;DHT22;10973;46.706;12.340;2022-12-18T15:36:46;-5.90;99.90
21622;DHT22;10973;46.706;12.340;2022-12-18T15:39:13;-5.80;99.90
21622;DHT22;10973;46.706;12.340;2022-12-18T15:41:40;-5.70;99.90
21622;DHT22;10973;46.706;12.340;2022-12-18T15:44:22;-5.80;99.90
21622;DHT22;10973;46.706;12.340;2022-12-18T15:46:51;-5.90;99.90
21622;DHT22;10973;46.706;12.340;2022-12-18T15:49:18;-5.90;99.90
21622;DHT22;10973;46.706;12.340;2022-12-18T15:51:53;-6.00;99.90
21622;DHT22;10973;46.706;12.340;2022-12-18T15:56:52;-6.20;99.90
21622;DHT22;10973;46.706;12.340;2022-12-18T15:59:20;-6.30;99.90
21622;DHT22;10973;46.706;12.340;2022-12-18T16:01:51;-6.40;99.90
21622;DHT22;10973;46.706;12.340;2022-12-18T16:04:19;-6.40;99.90
21622;DHT22;10973;46.706;12.340;2022-12-18T16:06:48;-6.30;99.90
21622;DHT22;10973;46.706;12.340;2022-12-18T16:09:37;-6.50;99.90
21622;DHT22;10973;46.706;12.340;2022-12-18T16:12:06;-6.50;99.90
21622;DHT22;10973;46.706;12.340;2022-12-18T16:14:40;-6.60;99.90
21622;DHT22;10973;46.706;12.340;2022-12-18T16:17:10;-6.50;99.90
21622;DHT22;10973;46.706;12.340;2022-12-18T16:19:39;-6.60;99.90
21622;DHT22;10973;46.706;12.340;2022-12-18T16:22:20;-6.60;99.90
21622;DHT22;10973;46.706;12.340;2022-12-18T16:24:56;-6.70;99.90
21622;DHT22;10973;46.706;12.340;2022-12-18T16:27:24;-6.70;99.90
21622;DHT22;10973;46.706;12.340;2022-12-18T16:29:52;-6.70;99.90
21622;DHT22;10973;46.706;12.340;2022-12-18T16:32:21;-6.80;99.90
21622;DHT22;10973;46.706;12.340;2022-12-18T16:34:50;-6.90;99.90
21622;DHT22;10973;46.706;12.340;2022-12-18T16:37:17;-6.80;99.90
21622;DHT22;10973;46.706;12.340;2022-12-18T16:39:45;-6.80;99.90
21622;DHT22;10973;46.706;12.340;2022-12-18T16:42:16;-6.90;99.90
21622;DHT22;10973;46.706;12.340;2022-12-18T16:44:46;-7.00;99.90
21622;DHT22;10973;46.706;12.340;2022-12-18T16:47:16;-7.00;99.90
21622;DHT22;10973;46.706;12.340;2022-12-18T16:49:57;-6.80;99.90
21622;DHT22;10973;46.706;12.340;2022-12-18T16:53:05;-6.80;99.90
21622;DHT22;10973;46.706;12.340;2022-12-18T16:55:41;-6.80;99.90
21622;DHT22;10973;46.706;12.340;2022-12-18T16:58:52;-6.90;99.90
21622;DHT22;10973;46.706;12.340;2022-12-18T17:01:21;-6.80;99.90
21622;DHT22;10973;46.706;12.340;2022-12-18T17:04:01;-6.80;99.90
21622;DHT22;10973;46.706;12.340;2022-12-18T17:06:32;-6.80;99.90
21622;DHT22;10973;46.706;12.340;2022-12-18T17:09:07;-6.90;99.90
21622;DHT22;10973;46.706;12.340;2022-12-18T17:11:39;-7.00;99.90
21622;DHT22;10973;46.706;12.340;2022-12-18T17:14:13;-7.00;99.90
21622;DHT22;10973;46.706;12.340;2022-12-18T17:16:42;-7.10;99.90
21622;DHT22;10973;46.706;12.340;2022-12-18T17:19:12;-7.10;99.90
21622;DHT22;10973;46.706;12.340;2022-12-18T17:21:50;-7.20;99.90
21622;DHT22;10973;46.706;12.340;2022-12-18T17:24:20;-7.10;99.90
21622;DHT22;10973;46.706;12.340;2022-12-18T17:26:51;-7.30;99.90
21622;DHT22;10973;46.706;12.340;2022-12-18T17:29:21;-7.30;99.90
21622;DHT22;10973;46.706;12.340;2022-12-18T17:31:50;-7.20;99.90
21622;DHT22;10973;46.706;12.340;2022-12-18T17:34:18;-7.30;99.90
21622;DHT22;10973;46.706;12.340;2022-12-18T17:36:46;-7.30;99.90
21622;DHT22;10973;46.706;12.340;2022-12-18T17:39:17;-7.20;99.90
21622;DHT22;10973;46.706;12.340;2022-12-18T17:41:47;-7.10;99.90
21622;DHT22;10973;46.706;12.340;2022-12-18T17:44:15;-7.00;99.90
21622;DHT22;10973;46.706;12.340;2022-12-18T17:46:44;-6.90;99.90
21622;DHT22;10973;46.706;12.340;2022-12-18T17:49:12;-6.80;99.90
21622;DHT22;10973;46.706;12.340;2022-12-18T17:51:41;-6.90;99.90
21622;DHT22;10973;46.706;12.340;2022-12-18T17:54:09;-7.00;99.90
21622;DHT22;10973;46.706;12.340;2022-12-18T17:56:37;-7.10;99.90
21622;DHT22;10973;46.706;12.340;2022-12-18T17:59:05;-7.10;99.90
21622;DHT22;10973;46.706;12.340;2022-12-18T18:01:33;-7.20;99.90
21622;DHT22;10973;46.706;12.340;2022-12-18T18:04:08;-7.30;99.90
21622;DHT22;10973;46.706;12.340;2022-12-18T18:06:37;-7.30;99.90
21622;DHT22;10973;46.706;12.340;2022-12-18T18:09:07;-7.40;99.90